Terminal Aerodrome Forecast
Issued by NWS

Home | Current Version | Previous Version | Text Only | Print | Product List | Glossary On
Versions: 1 2 3 4 5 6 7 8 9 10 11 12 13 14 15 16 17 18 19 20 21 22 23 24 25 26 27 28 29 30 31 32 33 34 35 36 37 38 39 40 41 42 43 44 45 46 47 48
000
FTUS43 KGRB 242300
TAFRHI
TAF
KRHI 242322Z 2500/2524 33012G20KT 1/2SM SN FZFG OVC010
     FM250200 32010G16KT 1 1/2SM -SN OVC006
     FM250400 32010KT 3SM -SN OVC008
     FM250500 32010KT 6SM -SN OVC012
     FM250900 29006KT P6SM -SN OVC015
     FM251600 28006KT P6SM BKN025 OVC050=

USA.gov is the U.S. government's official web portal to all federal, state and local government web resources and services.